sensor_id;sensor_type;location;lat;lon;timestamp;P1;durP1;ratioP1;P2;durP2;ratioP2
32469;SDS011;18925;48.356;10.864;2023-02-08T00:00:05;32.42;;;15.00;;
32469;SDS011;18925;48.356;10.864;2023-02-08T00:00:37;29.70;;;14.82;;
32469;SDS011;18925;48.356;10.864;2023-02-08T00:01:09;29.88;;;14.15;;
32469;SDS011;18925;48.356;10.864;2023-02-08T00:01:40;28.55;;;14.82;;
32469;SDS011;18925;48.356;10.864;2023-02-08T00:02:11;30.42;;;14.80;;
32469;SDS011;18925;48.356;10.864;2023-02-08T00:02:41;35.38;;;14.82;;
32469;SDS011;18925;48.356;10.864;2023-02-08T00:03:12;30.25;;;14.38;;
32469;SDS011;18925;48.356;10.864;2023-02-08T00:03:43;33.17;;;15.32;;
32469;SDS011;18925;48.356;10.864;2023-02-08T00:04:13;28.23;;;14.10;;
32469;SDS011;18925;48.356;10.864;2023-02-08T00:04:44;30.25;;;14.55;;
32469;SDS011;18925;48.356;10.864;2023-02-08T00:05:15;29.65;;;14.23;;
32469;SDS011;18925;48.356;10.864;2023-02-08T00:05:46;30.35;;;14.65;;
32469;SDS011;18925;48.356;10.864;2023-02-08T00:06:17;30.85;;;14.85;;
32469;SDS011;18925;48.356;10.864;2023-02-08T00:06:48;30.25;;;15.13;;
32469;SDS011;18925;48.356;10.864;2023-02-08T00:07:19;26.27;;;14.48;;
32469;SDS011;18925;48.356;10.864;2023-02-08T00:07:50;27.20;;;14.02;;
32469;SDS011;18925;48.356;10.864;2023-02-08T00:08:20;33.55;;;15.07;;
32469;SDS011;18925;48.356;10.864;2023-02-08T00:08:51;33.92;;;15.15;;
32469;SDS011;18925;48.356;10.864;2023-02-08T00:09:21;27.45;;;14.32;;
32469;SDS011;18925;48.356;10.864;2023-02-08T00:09:52;26.58;;;14.13;;
32469;SDS011;18925;48.356;10.864;2023-02-08T00:10:23;27.67;;;14.70;;
32469;SDS011;18925;48.356;10.864;2023-02-08T00:10:53;32.70;;;14.82;;
32469;SDS011;18925;48.356;10.864;2023-02-08T00:11:24;34.25;;;15.73;;
32469;SDS011;18925;48.356;10.864;2023-02-08T00:11:55;35.40;;;15.13;;
32469;SDS011;18925;48.356;10.864;2023-02-08T00:12:25;26.25;;;14.48;;
32469;SDS011;18925;48.356;10.864;2023-02-08T00:12:57;29.90;;;14.52;;
32469;SDS011;18925;48.356;10.864;2023-02-08T00:13:28;29.23;;;15.90;;
32469;SDS011;18925;48.356;10.864;2023-02-08T00:13:58;32.03;;;14.57;;
32469;SDS011;18925;48.356;10.864;2023-02-08T00:14:29;29.55;;;15.35;;
32469;SDS011;18925;48.356;10.864;2023-02-08T00:15:00;28.75;;;14.88;;
32469;SDS011;18925;48.356;10.864;2023-02-08T00:15:30;33.25;;;15.93;;
32469;SDS011;18925;48.356;10.864;2023-02-08T00:16:01;31.60;;;14.68;;
32469;SDS011;18925;48.356;10.864;2023-02-08T00:16:32;26.40;;;14.98;;
32469;SDS011;18925;48.356;10.864;2023-02-08T00:17:03;29.50;;;15.20;;
32469;SDS011;18925;48.356;10.864;2023-02-08T00:17:33;25.83;;;14.40;;
32469;SDS011;18925;48.356;10.864;2023-02-08T00:18:04;34.35;;;14.40;;
32469;SDS011;18925;48.356;10.864;2023-02-08T00:18:35;29.83;;;14.65;;
32469;SDS011;18925;48.356;10.864;2023-02-08T00:19:06;32.67;;;16.05;;
32469;SDS011;18925;48.356;10.864;2023-02-08T00:19:37;32.50;;;15.73;;
32469;SDS011;18925;48.356;10.864;2023-02-08T00:20:08;29.63;;;15.57;;
32469;SDS011;18925;48.356;10.864;2023-02-08T00:20:40;31.23;;;15.55;;
32469;SDS011;18925;48.356;10.864;2023-02-08T00:21:14;33.17;;;15.10;;
32469;SDS011;18925;48.356;10.864;2023-02-08T00:21:46;38.45;;;15.77;;
32469;SDS011;18925;48.356;10.864;2023-02-08T00:22:17;31.83;;;14.80;;
32469;SDS011;18925;48.356;10.864;2023-02-08T00:22:47;26.27;;;14.68;;
32469;SDS011;18925;48.356;10.864;2023-02-08T00:23:18;32.58;;;14.65;;
32469;SDS011;18925;48.356;10.864;2023-02-08T00:23:48;33.10;;;15.40;;
32469;SDS011;18925;48.356;10.864;2023-02-08T00:24:19;39.00;;;15.57;;
32469;SDS011;18925;48.356;10.864;2023-02-08T00:24:50;27.60;;;14.55;;
32469;SDS011;18925;48.356;10.864;2023-02-08T00:25:20;31.13;;;14.32;;
32469;SDS011;18925;48.356;10.864;2023-02-08T00:25:51;30.45;;;15.65;;
32469;SDS011;18925;48.356;10.864;2023-02-08T00:26:21;33.65;;;16.52;;
32469;SDS011;18925;48.356;10.864;2023-02-08T00:26:52;29.77;;;15.13;;
32469;SDS011;18925;48.356;10.864;2023-02-08T00:27:23;30.50;;;16.25;;
32469;SDS011;18925;48.356;10.864;2023-02-08T00:27:54;29.77;;;15.02;;
32469;SDS011;18925;48.356;10.864;2023-02-08T00:28:24;31.67;;;15.23;;
32469;SDS011;18925;48.356;10.864;2023-02-08T00:28:55;31.40;;;15.15;;
32469;SDS011;18925;48.356;10.864;2023-02-08T00:29:25;32.85;;;14.82;;
32469;SDS011;18925;48.356;10.864;2023-02-08T00:29:56;27.17;;;15.23;;
32469;SDS011;18925;48.356;10.864;2023-02-08T00:30:27;32.83;;;15.55;;
32469;SDS011;18925;48.356;10.864;2023-02-08T00:30:57;30.27;;;15.65;;
32469;SDS011;18925;48.356;10.864;2023-02-08T00:31:28;36.65;;;16.73;;
32469;SDS011;18925;48.356;10.864;2023-02-08T00:31:59;31.42;;;15.52;;
32469;SDS011;18925;48.356;10.864;2023-02-08T00:32:29;27.83;;;14.68;;
32469;SDS011;18925;48.356;10.864;2023-02-08T00:33:00;32.25;;;14.90;;
32469;SDS011;18925;48.356;10.864;2023-02-08T00:33:31;30.65;;;15.88;;
32469;SDS011;18925;48.356;10.864;2023-02-08T00:34:02;33.13;;;16.27;;
32469;SDS011;18925;48.356;10.864;2023-02-08T00:34:33;33.67;;;15.20;;
32469;SDS011;18925;48.356;10.864;2023-02-08T00:35:04;29.80;;;15.35;;
32469;SDS011;18925;48.356;10.864;2023-02-08T00:35:35;28.20;;;15.10;;
32469;SDS011;18925;48.356;10.864;2023-02-08T00:36:06;28.00;;;15.55;;
32469;SDS011;18925;48.356;10.864;2023-02-08T00:36:37;25.77;;;14.75;;
32469;SDS011;18925;48.356;10.864;2023-02-08T00:37:08;33.03;;;15.65;;
32469;SDS011;18925;48.356;10.864;2023-02-08T00:37:40;28.95;;;15.05;;
32469;SDS011;18925;48.356;10.864;2023-02-08T00:38:10;33.55;;;14.73;;
32469;SDS011;18925;48.356;10.864;2023-02-08T00:38:41;30.40;;;15.40;;
32469;SDS011;18925;48.356;10.864;2023-02-08T00:39:12;27.30;;;15.10;;
32469;SDS011;18925;48.356;10.864;2023-02-08T00:39:42;29.92;;;15.63;;
32469;SDS011;18925;48.356;10.864;2023-02-08T00:40:13;30.95;;;15.35;;
32469;SDS011;18925;48.356;10.864;2023-02-08T00:40:43;28.20;;;15.43;;
32469;SDS011;18925;48.356;10.864;2023-02-08T00:41:14;35.03;;;15.70;;
32469;SDS011;18925;48.356;10.864;2023-02-08T00:41:45;30.45;;;14.70;;
32469;SDS011;18925;48.356;10.864;2023-02-08T00:42:15;28.17;;;15.02;;
32469;SDS011;18925;48.356;10.864;2023-02-08T00:42:46;26.05;;;15.40;;
32469;SDS011;18925;48.356;10.864;2023-02-08T00:43:17;35.88;;;15.43;;
32469;SDS011;18925;48.356;10.864;2023-02-08T00:43:47;31.90;;;15.25;;
32469;SDS011;18925;48.356;10.864;2023-02-08T00:44:18;29.75;;;15.43;;
32469;SDS011;18925;48.356;10.864;2023-02-08T00:44:48;28.90;;;14.52;;
32469;SDS011;18925;48.356;10.864;2023-02-08T00:45:19;29.13;;;15.32;;
32469;SDS011;18925;48.356;10.864;2023-02-08T00:45:53;32.13;;;14.52;;
32469;SDS011;18925;48.356;10.864;2023-02-08T00:46:27;29.10;;;15.43;;
32469;SDS011;18925;48.356;10.864;2023-02-08T00:46:58;27.92;;;14.90;;
32469;SDS011;18925;48.356;10.864;2023-02-08T00:47:29;33.95;;;16.15;;
32469;SDS011;18925;48.356;10.864;2023-02-08T00:47:59;27.95;;;15.20;;
32469;SDS011;18925;48.356;10.864;2023-02-08T00:48:30;35.05;;;15.68;;
32469;SDS011;18925;48.356;10.864;2023-02-08T00:49:02;35.65;;;16.15;;
32469;SDS011;18925;48.356;10.864;2023-02-08T00:49:33;28.45;;;15.88;;
32469;SDS011;18925;48.356;10.864;2023-02-08T00:50:03;29.60;;;15.13;;
32469;SDS011;18925;48.356;10.864;2023-02-08T00:50:35;36.28;;;16.70;;
32469;SDS011;18925;48.356;10.864;2023-02-08T00:51:06;35.58;;;15.40;;
32469;SDS011;18925;48.356;10.864;2023-02-08T00:51:39;28.13;;;15.00;;
32469;SDS011;18925;48.356;10.864;2023-02-08T00:52:09;35.35;;;16.60;;
32469;SDS011;18925;48.356;10.864;2023-02-08T00:52:40;32.20;;;14.98;;
32469;SDS011;18925;48.356;10.864;2023-02-08T00:53:11;29.05;;;14.73;;
32469;SDS011;18925;48.356;10.864;2023-02-08T00:53:43;27.35;;;14.95;;
32469;SDS011;18925;48.356;10.864;2023-02-08T00:54:18;33.15;;;16.38;;
32469;SDS011;18925;48.356;10.864;2023-02-08T00:54:50;27.98;;;14.10;;
32469;SDS011;18925;48.356;10.864;2023-02-08T00:55:20;33.30;;;15.23;;
32469;SDS011;18925;48.356;10.864;2023-02-08T00:55:51;32.63;;;15.63;;
32469;SDS011;18925;48.356;10.864;2023-02-08T00:56:23;28.52;;;15.38;;
32469;SDS011;18925;48.356;10.864;2023-02-08T00:56:53;32.38;;;14.38;;
32469;SDS011;18925;48.356;10.864;2023-02-08T00:57:24;31.17;;;15.13;;
32469;SDS011;18925;48.356;10.864;2023-02-08T00:57:54;30.02;;;14.50;;
32469;SDS011;18925;48.356;10.864;2023-02-08T00:58:25;31.83;;;15.30;;
32469;SDS011;18925;48.356;10.864;2023-02-08T00:58:56;31.55;;;14.98;;
32469;SDS011;18925;48.356;10.864;2023-02-08T00:59:26;29.40;;;14.32;;
32469;SDS011;18925;48.356;10.864;2023-02-08T00:59:57;27.95;;;14.82;;
32469;SDS011;18925;48.356;10.864;2023-02-08T01:00:28;29.15;;;14.38;;
32469;SDS011;18925;48.356;10.864;2023-02-08T01:00:58;30.88;;;15.73;;
32469;SDS011;18925;48.356;10.864;2023-02-08T01:01:29;31.50;;;15.95;;
32469;SDS011;18925;48.356;10.864;2023-02-08T01:01:59;30.25;;;14.80;;
32469;SDS011;18925;48.356;10.864;2023-02-08T01:02:30;33.78;;;15.45;;
32469;SDS011;18925;48.356;10.864;2023-02-08T01:03:01;30.55;;;14.88;;
32469;SDS011;18925;48.356;10.864;2023-02-08T01:03:32;30.83;;;14.98;;
32469;SDS011;18925;48.356;10.864;2023-02-08T01:04:04;38.03;;;16.05;;
32469;SDS011;18925;48.356;10.864;2023-02-08T01:04:35;31.90;;;14.75;;
32469;SDS011;18925;48.356;10.864;2023-02-08T01:05:06;33.55;;;15.88;;
32469;SDS011;18925;48.356;10.864;2023-02-08T01:05:38;26.85;;;15.13;;
32469;SDS011;18925;48.356;10.864;2023-02-08T01:06:10;28.23;;;13.75;;
32469;SDS011;18925;48.356;10.864;2023-02-08T01:06:43;32.38;;;15.55;;
32469;SDS011;18925;48.356;10.864;2023-02-08T01:07:13;30.52;;;15.75;;
32469;SDS011;18925;48.356;10.864;2023-02-08T01:07:44;30.35;;;15.52;;
32469;SDS011;18925;48.356;10.864;2023-02-08T01:08:15;32.95;;;14.80;;
32469;SDS011;18925;48.356;10.864;2023-02-08T01:08:45;34.00;;;15.68;;
32469;SDS011;18925;48.356;10.864;2023-02-08T01:09:16;28.50;;;15.57;;
32469;SDS011;18925;48.356;10.864;2023-02-08T01:09:47;34.25;;;15.10;;
32469;SDS011;18925;48.356;10.864;2023-02-08T01:10:17;33.80;;;16.17;;
32469;SDS011;18925;48.356;10.864;2023-02-08T01:10:48;31.00;;;15.35;;
32469;SDS011;18925;48.356;10.864;2023-02-08T01:11:20;28.77;;;15.20;;
32469;SDS011;18925;48.356;10.864;2023-02-08T01:11:54;29.65;;;15.30;;
32469;SDS011;18925;48.356;10.864;2023-02-08T01:12:24;33.78;;;16.08;;
32469;SDS011;18925;48.356;10.864;2023-02-08T01:12:55;31.95;;;15.23;;
32469;SDS011;18925;48.356;10.864;2023-02-08T01:13:25;32.63;;;15.73;;
32469;SDS011;18925;48.356;10.864;2023-02-08T01:13:56;29.75;;;15.43;;
32469;SDS011;18925;48.356;10.864;2023-02-08T01:14:27;27.67;;;15.07;;
32469;SDS011;18925;48.356;10.864;2023-02-08T01:14:58;31.25;;;15.55;;
32469;SDS011;18925;48.356;10.864;2023-02-08T01:15:28;34.53;;;15.77;;
32469;SDS011;18925;48.356;10.864;2023-02-08T01:16:09;30.65;;;16.52;;
32469;SDS011;18925;48.356;10.864;2023-02-08T01:16:43;36.40;;;16.08;;
32469;SDS011;18925;48.356;10.864;2023-02-08T01:17:13;34.60;;;15.38;;
32469;SDS011;18925;48.356;10.864;2023-02-08T01:17:44;31.23;;;15.38;;
32469;SDS011;18925;48.356;10.864;2023-02-08T01:18:15;35.53;;;15.75;;
32469;SDS011;18925;48.356;10.864;2023-02-08T01:18:46;34.05;;;15.90;;
32469;SDS011;18925;48.356;10.864;2023-02-08T01:19:19;34.88;;;16.02;;
32469;SDS011;18925;48.356;10.864;2023-02-08T01:19:49;34.78;;;15.70;;
32469;SDS011;18925;48.356;10.864;2023-02-08T01:20:20;31.15;;;15.30;;
32469;SDS011;18925;48.356;10.864;2023-02-08T01:20:51;30.95;;;15.55;;
32469;SDS011;18925;48.356;10.864;2023-02-08T01:21:23;31.67;;;15.55;;
32469;SDS011;18925;48.356;10.864;2023-02-08T01:21:56;28.20;;;15.35;;
32469;SDS011;18925;48.356;10.864;2023-02-08T01:22:27;32.50;;;15.35;;
32469;SDS011;18925;48.356;10.864;2023-02-08T01:22:59;34.92;;;15.95;;
32469;SDS011;18925;48.356;10.864;2023-02-08T01:23:29;33.85;;;16.40;;
32469;SDS011;18925;48.356;10.864;2023-02-08T01:24:00;29.52;;;15.85;;
32469;SDS011;18925;48.356;10.864;2023-02-08T01:24:31;36.20;;;16.20;;
32469;SDS011;18925;48.356;10.864;2023-02-08T01:25:02;27.50;;;14.60;;
32469;SDS011;18925;48.356;10.864;2023-02-08T01:25:33;28.83;;;15.50;;
32469;SDS011;18925;48.356;10.864;2023-02-08T01:26:05;35.33;;;15.68;;
32469;SDS011;18925;48.356;10.864;2023-02-08T01:26:36;32.88;;;15.70;;
32469;SDS011;18925;48.356;10.864;2023-02-08T01:27:07;29.63;;;15.95;;
32469;SDS011;18925;48.356;10.864;2023-02-08T01:27:38;33.50;;;16.50;;
32469;SDS011;18925;48.356;10.864;2023-02-08T01:28:08;34.58;;;15.65;;
32469;SDS011;18925;48.356;10.864;2023-02-08T01:28:39;35.40;;;16.58;;
32469;SDS011;18925;48.356;10.864;2023-02-08T01:29:10;29.23;;;15.60;;
32469;SDS011;18925;48.356;10.864;2023-02-08T01:29:41;33.63;;;16.15;;
32469;SDS011;18925;48.356;10.864;2023-02-08T01:30:11;29.17;;;15.45;;
32469;SDS011;18925;48.356;10.864;2023-02-08T01:30:42;31.40;;;15.55;;
32469;SDS011;18925;48.356;10.864;2023-02-08T01:31:14;34.13;;;17.08;;
32469;SDS011;18925;48.356;10.864;2023-02-08T01:31:47;33.08;;;16.40;;
32469;SDS011;18925;48.356;10.864;2023-02-08T01:32:18;34.10;;;15.82;;
32469;SDS011;18925;48.356;10.864;2023-02-08T01:32:49;25.35;;;14.85;;
32469;SDS011;18925;48.356;10.864;2023-02-08T01:33:19;29.25;;;15.23;;
32469;SDS011;18925;48.356;10.864;2023-02-08T01:33:50;31.42;;;16.38;;
32469;SDS011;18925;48.356;10.864;2023-02-08T01:34:21;37.95;;;16.30;;
32469;SDS011;18925;48.356;10.864;2023-02-08T01:34:51;29.42;;;16.80;;
32469;SDS011;18925;48.356;10.864;2023-02-08T01:35:22;38.75;;;17.17;;
32469;SDS011;18925;48.356;10.864;2023-02-08T01:35:52;38.15;;;17.40;;
32469;SDS011;18925;48.356;10.864;2023-02-08T01:36:24;27.55;;;15.82;;
32469;SDS011;18925;48.356;10.864;2023-02-08T01:36:55;39.75;;;17.20;;
32469;SDS011;18925;48.356;10.864;2023-02-08T01:37:26;34.17;;;16.30;;
32469;SDS011;18925;48.356;10.864;2023-02-08T01:37:56;32.78;;;15.93;;
32469;SDS011;18925;48.356;10.864;2023-02-08T01:38:27;30.75;;;15.98;;
32469;SDS011;18925;48.356;10.864;2023-02-08T01:38:58;31.17;;;16.02;;
32469;SDS011;18925;48.356;10.864;2023-02-08T01:39:28;30.85;;;15.77;;
32469;SDS011;18925;48.356;10.864;2023-02-08T01:39:59;33.50;;;16.98;;
32469;SDS011;18925;48.356;10.864;2023-02-08T01:40:29;33.45;;;16.75;;
32469;SDS011;18925;48.356;10.864;2023-02-08T01:41:01;38.75;;;17.77;;
32469;SDS011;18925;48.356;10.864;2023-02-08T01:41:37;26.70;;;14.77;;
32469;SDS011;18925;48.356;10.864;2023-02-08T01:42:12;35.97;;;16.40;;
32469;SDS011;18925;48.356;10.864;2023-02-08T01:42:43;33.00;;;16.77;;
32469;SDS011;18925;48.356;10.864;2023-02-08T01:43:19;29.85;;;16.52;;
32469;SDS011;18925;48.356;10.864;2023-02-08T01:45:56;30.00;;;16.02;;
32469;SDS011;18925;48.356;10.864;2023-02-08T01:46:28;38.42;;;16.33;;
32469;SDS011;18925;48.356;10.864;2023-02-08T01:46:59;30.05;;;15.40;;
32469;SDS011;18925;48.356;10.864;2023-02-08T01:47:30;36.78;;;16.85;;
32469;SDS011;18925;48.356;10.864;2023-02-08T01:48:11;33.40;;;16.73;;
32469;SDS011;18925;48.356;10.864;2023-02-08T01:48:46;29.25;;;15.68;;
32469;SDS011;18925;48.356;10.864;2023-02-08T01:49:24;48.45;;;16.65;;
32469;SDS011;18925;48.356;10.864;2023-02-08T01:49:58;33.13;;;16.67;;
32469;SDS011;18925;48.356;10.864;2023-02-08T01:50:31;33.60;;;16.42;;
32469;SDS011;18925;48.356;10.864;2023-02-08T01:51:13;27.73;;;15.77;;
32469;SDS011;18925;48.356;10.864;2023-02-08T01:52:34;33.10;;;16.08;;
32469;SDS011;18925;48.356;10.864;2023-02-08T01:53:06;34.42;;;15.68;;
32469;SDS011;18925;48.356;10.864;2023-02-08T01:53:37;32.97;;;16.77;;
32469;SDS011;18925;48.356;10.864;2023-02-08T01:54:10;30.80;;;16.20;;
32469;SDS011;18925;48.356;10.864;2023-02-08T01:54:45;33.53;;;16.20;;
32469;SDS011;18925;48.356;10.864;2023-02-08T01:55:21;38.15;;;16.48;;
32469;SDS011;18925;48.356;10.864;2023-02-08T01:55:55;34.92;;;15.95;;
32469;SDS011;18925;48.356;10.864;2023-02-08T01:56:30;35.20;;;16.67;;
32469;SDS011;18925;48.356;10.864;2023-02-08T01:57:03;28.58;;;14.90;;
32469;SDS011;18925;48.356;10.864;2023-02-08T01:57:34;32.92;;;17.08;;
32469;SDS011;18925;48.356;10.864;2023-02-08T01:58:06;33.20;;;16.80;;
32469;SDS011;18925;48.356;10.864;2023-02-08T01:58:40;33.88;;;17.40;;
32469;SDS011;18925;48.356;10.864;2023-02-08T01:59:16;33.70;;;16.35;;
32469;SDS011;18925;48.356;10.864;2023-02-08T02:00:00;36.33;;;15.90;;
32469;SDS011;18925;48.356;10.864;2023-02-08T02:00:36;34.58;;;17.27;;
32469;SDS011;18925;48.356;10.864;2023-02-08T02:01:06;39.20;;;15.85;;
32469;SDS011;18925;48.356;10.864;2023-02-08T02:01:38;34.95;;;17.15;;
32469;SDS011;18925;48.356;10.864;2023-02-08T02:02:11;34.42;;;17.17;;
32469;SDS011;18925;48.356;10.864;2023-02-08T02:02:45;39.53;;;17.98;;
32469;SDS011;18925;48.356;10.864;2023-02-08T02:03:18;36.65;;;16.60;;
32469;SDS011;18925;48.356;10.864;2023-02-08T02:03:51;29.52;;;15.68;;
32469;SDS011;18925;48.356;10.864;2023-02-08T02:04:21;32.10;;;16.40;;
32469;SDS011;18925;48.356;10.864;2023-02-08T02:04:52;34.10;;;16.65;;
32469;SDS011;18925;48.356;10.864;2023-02-08T02:05:25;34.85;;;16.77;;
32469;SDS011;18925;48.356;10.864;2023-02-08T02:06:14;29.10;;;16.23;;
32469;SDS011;18925;48.356;10.864;2023-02-08T02:06:48;32.38;;;16.95;;
32469;SDS011;18925;48.356;10.864;2023-02-08T02:07:23;35.90;;;16.20;;
32469;SDS011;18925;48.356;10.864;2023-02-08T02:07:57;35.70;;;16.42;;
32469;SDS011;18925;48.356;10.864;2023-02-08T02:08:28;33.92;;;16.75;;
32469;SDS011;18925;48.356;10.864;2023-02-08T02:09:04;33.25;;;17.05;;
32469;SDS011;18925;48.356;10.864;2023-02-08T02:10:23;37.15;;;16.65;;
32469;SDS011;18925;48.356;10.864;2023-02-08T02:10:56;37.05;;;16.52;;
32469;SDS011;18925;48.356;10.864;2023-02-08T02:11:27;38.30;;;16.85;;
32469;SDS011;18925;48.356;10.864;2023-02-08T02:11:58;30.38;;;16.80;;
32469;SDS011;18925;48.356;10.864;2023-02-08T02:12:30;36.17;;;17.02;;
32469;SDS011;18925;48.356;10.864;2023-02-08T02:13:24;39.38;;;17.33;;
32469;SDS011;18925;48.356;10.864;2023-02-08T02:13:55;32.75;;;16.80;;
32469;SDS011;18925;48.356;10.864;2023-02-08T02:14:27;34.85;;;17.23;;
32469;SDS011;18925;48.356;10.864;2023-02-08T02:14:58;35.53;;;16.98;;
32469;SDS011;18925;48.356;10.864;2023-02-08T02:15:30;32.85;;;16.95;;
32469;SDS011;18925;48.356;10.864;2023-02-08T02:16:01;34.30;;;18.25;;
32469;SDS011;18925;48.356;10.864;2023-02-08T02:16:32;32.90;;;17.40;;
32469;SDS011;18925;48.356;10.864;2023-02-08T02:17:02;31.08;;;17.30;;
32469;SDS011;18925;48.356;10.864;2023-02-08T02:17:34;39.60;;;18.02;;
32469;SDS011;18925;48.356;10.864;2023-02-08T02:18:06;37.33;;;17.85;;
32469;SDS011;18925;48.356;10.864;2023-02-08T02:18:37;33.95;;;17.95;;
32469;SDS011;18925;48.356;10.864;2023-02-08T02:19:11;35.42;;;16.88;;
32469;SDS011;18925;48.356;10.864;2023-02-08T02:20:03;33.83;;;17.40;;
32469;SDS011;18925;48.356;10.864;2023-02-08T02:21:22;31.58;;;16.65;;
32469;SDS011;18925;48.356;10.864;2023-02-08T02:22:03;33.60;;;17.17;;
32469;SDS011;18925;48.356;10.864;2023-02-08T02:23:03;33.97;;;15.57;;
32469;SDS011;18925;48.356;10.864;2023-02-08T02:28:34;36.13;;;17.05;;
32469;SDS011;18925;48.356;10.864;2023-02-08T02:29:24;34.05;;;15.80;;
32469;SDS011;18925;48.356;10.864;2023-02-08T02:31:00;36.58;;;16.85;;
32469;SDS011;18925;48.356;10.864;2023-02-08T02:32:38;36.53;;;18.00;;
32469;SDS011;18925;48.356;10.864;2023-02-08T02:35:00;35.65;;;16.75;;
32469;SDS011;18925;48.356;10.864;2023-02-08T02:38:00;31.10;;;16.95;;
32469;SDS011;18925;48.356;10.864;2023-02-08T02:38:58;29.88;;;16.25;;
32469;SDS011;18925;48.356;10.864;2023-02-08T02:40:07;32.33;;;16.65;;
32469;SDS011;18925;48.356;10.864;2023-02-08T02:41:00;34.90;;;16.77;;
32469;SDS011;18925;48.356;10.864;2023-02-08T02:41:38;33.90;;;18.08;;
32469;SDS011;18925;48.356;10.864;2023-02-08T02:42:44;33.05;;;17.45;;
32469;SDS011;18925;48.356;10.864;2023-02-08T02:43:46;35.55;;;16.63;;
32469;SDS011;18925;48.356;10.864;2023-02-08T02:44:29;38.08;;;18.30;;
32469;SDS011;18925;48.356;10.864;2023-02-08T02:45:58;34.28;;;17.67;;
32469;SDS011;18925;48.356;10.864;2023-02-08T02:48:09;34.47;;;16.70;;
32469;SDS011;18925;48.356;10.864;2023-02-08T02:49:01;37.88;;;17.90;;
32469;SDS011;18925;48.356;10.864;2023-02-08T02:50:41;33.30;;;15.82;;
32469;SDS011;18925;48.356;10.864;2023-02-08T02:51:17;33.72;;;17.95;;
32469;SDS011;18925;48.356;10.864;2023-02-08T02:52:03;43.15;;;18.10;;
32469;SDS011;18925;48.356;10.864;2023-02-08T02:52:41;47.65;;;20.30;;
32469;SDS011;18925;48.356;10.864;2023-02-08T02:53:25;39.45;;;20.00;;
32469;SDS011;18925;48.356;10.864;2023-02-08T02:54:03;42.03;;;19.50;;
32469;SDS011;18925;48.356;10.864;2023-02-08T02:55:21;38.80;;;19.00;;
32469;SDS011;18925;48.356;10.864;2023-02-08T02:55:58;41.95;;;19.95;;
32469;SDS011;18925;48.356;10.864;2023-02-08T02:56:43;36.20;;;18.17;;
32469;SDS011;18925;48.356;10.864;2023-02-08T02:57:16;42.35;;;19.77;;
32469;SDS011;18925;48.356;10.864;2023-02-08T02:57:59;40.42;;;20.15;;
32469;SDS011;18925;48.356;10.864;2023-02-08T02:58:31;41.58;;;18.65;;
32469;SDS011;18925;48.356;10.864;2023-02-08T02:59:03;35.15;;;18.73;;
32469;SDS011;18925;48.356;10.864;2023-02-08T02:59:37;40.97;;;20.38;;
32469;SDS011;18925;48.356;10.864;2023-02-08T03:00:10;43.90;;;20.45;;
32469;SDS011;18925;48.356;10.864;2023-02-08T03:00:43;38.25;;;18.92;;
32469;SDS011;18925;48.356;10.864;2023-02-08T03:01:21;43.05;;;20.10;;
32469;SDS011;18925;48.356;10.864;2023-02-08T03:01:55;50.95;;;20.55;;
32469;SDS011;18925;48.356;10.864;2023-02-08T03:02:27;44.13;;;21.05;;
32469;SDS011;18925;48.356;10.864;2023-02-08T03:02:58;37.47;;;19.23;;
32469;SDS011;18925;48.356;10.864;2023-02-08T03:03:29;40.45;;;20.35;;
32469;SDS011;18925;48.356;10.864;2023-02-08T03:04:15;42.42;;;20.00;;
32469;SDS011;18925;48.356;10.864;2023-02-08T03:04:48;38.20;;;19.80;;
32469;SDS011;18925;48.356;10.864;2023-02-08T03:05:20;44.30;;;19.80;;
32469;SDS011;18925;48.356;10.864;2023-02-08T03:05:51;40.67;;;21.23;;
32469;SDS011;18925;48.356;10.864;2023-02-08T03:09:44;42.00;;;19.38;;
32469;SDS011;18925;48.356;10.864;2023-02-08T03:10:32;42.70;;;19.10;;
32469;SDS011;18925;48.356;10.864;2023-02-08T03:11:17;42.70;;;20.30;;
32469;SDS011;18925;48.356;10.864;2023-02-08T03:13:26;36.05;;;19.50;;
32469;SDS011;18925;48.356;10.864;2023-02-08T03:19:09;42.83;;;20.52;;
32469;SDS011;18925;48.356;10.864;2023-02-08T03:20:08;42.33;;;19.42;;
32469;SDS011;18925;48.356;10.864;2023-02-08T03:23:07;44.03;;;20.05;;
32469;SDS011;18925;48.356;10.864;2023-02-08T03:23:20;39.03;;;20.52;;
32469;SDS011;18925;48.356;10.864;2023-02-08T03:24:08;42.55;;;20.13;;
32469;SDS011;18925;48.356;10.864;2023-02-08T03:24:59;41.42;;;19.73;;
32469;SDS011;18925;48.356;10.864;2023-02-08T03:28:02;47.22;;;21.55;;
32469;SDS011;18925;48.356;10.864;2023-02-08T03:28:54;36.00;;;19.90;;
32469;SDS011;18925;48.356;10.864;2023-02-08T03:31:41;38.33;;;19.02;;
32469;SDS011;18925;48.356;10.864;2023-02-08T03:32:25;41.15;;;20.25;;
32469;SDS011;18925;48.356;10.864;2023-02-08T03:33:33;36.60;;;18.27;;
32469;SDS011;18925;48.356;10.864;2023-02-08T03:34:18;38.53;;;18.85;;
32469;SDS011;18925;48.356;10.864;2023-02-08T03:34:57;41.72;;;19.98;;
32469;SDS011;18925;48.356;10.864;2023-02-08T03:35:48;40.00;;;19.50;;
32469;SDS011;18925;48.356;10.864;2023-02-08T03:36:29;42.58;;;19.50;;
32469;SDS011;18925;48.356;10.864;2023-02-08T03:37:07;37.22;;;20.20;;
32469;SDS011;18925;48.356;10.864;2023-02-08T03:37:48;44.83;;;21.17;;
32469;SDS011;18925;48.356;10.864;2023-02-08T03:38:30;43.50;;;21.05;;
32469;SDS011;18925;48.356;10.864;2023-02-08T03:39:06;45.42;;;20.75;;
32469;SDS011;18925;48.356;10.864;2023-02-08T03:39:40;45.05;;;21.38;;
32469;SDS011;18925;48.356;10.864;2023-02-08T03:40:20;44.63;;;21.52;;
32469;SDS011;18925;48.356;10.864;2023-02-08T03:40:55;43.17;;;21.45;;
32469;SDS011;18925;48.356;10.864;2023-02-08T03:41:30;40.03;;;20.63;;
32469;SDS011;18925;48.356;10.864;2023-02-08T03:42:09;46.13;;;21.15;;
32469;SDS011;18925;48.356;10.864;2023-02-08T03:42:44;41.20;;;20.88;;
32469;SDS011;18925;48.356;10.864;2023-02-08T03:43:19;40.65;;;21.23;;
32469;SDS011;18925;48.356;10.864;2023-02-08T03:44:00;38.97;;;21.17;;
32469;SDS011;18925;48.356;10.864;2023-02-08T03:44:40;48.75;;;20.65;;
32469;SDS011;18925;48.356;10.864;2023-02-08T03:45:16;47.80;;;20.80;;
32469;SDS011;18925;48.356;10.864;2023-02-08T03:45:52;42.78;;;21.27;;
32469;SDS011;18925;48.356;10.864;2023-02-08T03:46:39;48.65;;;21.05;;
32469;SDS011;18925;48.356;10.864;2023-02-08T03:47:24;46.42;;;20.75;;
32469;SDS011;18925;48.356;10.864;2023-02-08T03:47:58;46.75;;;21.27;;
32469;SDS011;18925;48.356;10.864;2023-02-08T03:48:31;47.45;;;21.52;;
32469;SDS011;18925;48.356;10.864;2023-02-08T03:49:09;38.13;;;19.98;;
32469;SDS011;18925;48.356;10.864;2023-02-08T03:49:44;41.85;;;21.02;;
32469;SDS011;18925;48.356;10.864;2023-02-08T03:50:17;42.35;;;21.10;;
32469;SDS011;18925;48.356;10.864;2023-02-08T03:50:51;46.50;;;21.80;;
32469;SDS011;18925;48.356;10.864;2023-02-08T03:51:25;50.95;;;21.48;;
32469;SDS011;18925;48.356;10.864;2023-02-08T03:51:58;41.85;;;19.98;;